sensor_id;sensor_type;location;lat;lon;timestamp;pressure;altitude;pressure_sealevel;temperature;humidity
52291;BME280;39663;45.432;28.050;2023-09-19T00:00:14;101745.52;;;19.06;49.29
52291;BME280;39663;45.432;28.050;2023-09-19T00:00:46;101744.92;;;18.89;49.34
52291;BME280;39663;45.432;28.050;2023-09-19T00:01:17;101742.83;;;18.86;49.35
52291;BME280;39663;45.432;28.050;2023-09-19T00:01:48;101743.34;;;19.00;49.42
52291;BME280;39663;45.432;28.050;2023-09-19T00:02:20;101743.74;;;18.63;49.48
52291;BME280;39663;45.432;28.050;2023-09-19T00:02:53;101743.54;;;19.04;49.38
52291;BME280;39663;45.432;28.050;2023-09-19T00:03:25;101743.00;;;19.13;49.36
52291;BME280;39663;45.432;28.050;2023-09-19T00:03:56;101743.86;;;18.88;49.43
52291;BME280;39663;45.432;28.050;2023-09-19T00:04:28;101743.07;;;18.83;49.49
52291;BME280;39663;45.432;28.050;2023-09-19T00:05:02;101742.00;;;18.79;49.47
52291;BME280;39663;45.432;28.050;2023-09-19T00:05:35;101743.47;;;18.89;49.48
52291;BME280;39663;45.432;28.050;2023-09-19T00:06:07;101741.24;;;18.77;49.62
52291;BME280;39663;45.432;28.050;2023-09-19T00:06:39;101741.95;;;18.54;49.68
52291;BME280;39663;45.432;28.050;2023-09-19T00:07:10;101742.06;;;19.00;49.64
52291;BME280;39663;45.432;28.050;2023-09-19T00:07:42;101740.87;;;18.56;49.77
52291;BME280;39663;45.432;28.050;2023-09-19T00:08:13;101740.84;;;18.47;50.02
52291;BME280;39663;45.432;28.050;2023-09-19T00:08:45;101740.11;;;18.57;49.87
52291;BME280;39663;45.432;28.050;2023-09-19T00:09:16;101739.59;;;18.98;49.70
52291;BME280;39663;45.432;28.050;2023-09-19T00:09:48;101737.58;;;18.83;49.64
52291;BME280;39663;45.432;28.050;2023-09-19T00:10:19;101737.41;;;18.66;49.49
52291;BME280;39663;45.432;28.050;2023-09-19T00:10:51;101738.35;;;18.86;49.56
52291;BME280;39663;45.432;28.050;2023-09-19T00:11:22;101738.65;;;19.03;49.53
52291;BME280;39663;45.432;28.050;2023-09-19T00:11:54;101739.84;;;18.62;49.54
52291;BME280;39663;45.432;28.050;2023-09-19T00:12:25;101738.65;;;18.86;49.64
52291;BME280;39663;45.432;28.050;2023-09-19T00:12:57;101740.63;;;18.61;49.60
52291;BME280;39663;45.432;28.050;2023-09-19T00:13:29;101740.27;;;18.85;49.67
52291;BME280;39663;45.432;28.050;2023-09-19T00:14:00;101740.84;;;18.57;49.71
52291;BME280;39663;45.432;28.050;2023-09-19T00:14:32;101739.77;;;18.74;49.78
52291;BME280;39663;45.432;28.050;2023-09-19T00:15:04;101740.35;;;18.95;49.73
52291;BME280;39663;45.432;28.050;2023-09-19T00:15:38;101742.27;;;18.92;49.77
52291;BME280;39663;45.432;28.050;2023-09-19T00:16:11;101741.91;;;18.83;49.76
52291;BME280;39663;45.432;28.050;2023-09-19T00:16:42;101742.00;;;18.82;49.79
52291;BME280;39663;45.432;28.050;2023-09-19T00:17:13;101743.68;;;18.91;49.79
52291;BME280;39663;45.432;28.050;2023-09-19T00:17:45;101741.17;;;18.98;49.75
52291;BME280;39663;45.432;28.050;2023-09-19T00:18:16;101740.38;;;19.03;49.78
52291;BME280;39663;45.432;28.050;2023-09-19T00:18:48;101739.55;;;18.59;49.84
52291;BME280;39663;45.432;28.050;2023-09-19T00:19:19;101740.11;;;18.95;49.94
52291;BME280;39663;45.432;28.050;2023-09-19T00:19:51;101740.87;;;18.61;49.97
52291;BME280;39663;45.432;28.050;2023-09-19T00:20:28;101739.54;;;18.82;50.05
52291;BME280;39663;45.432;28.050;2023-09-19T00:20:59;101741.12;;;18.92;50.14
52291;BME280;39663;45.432;28.050;2023-09-19T00:21:32;101740.66;;;18.92;50.18
52291;BME280;39663;45.432;28.050;2023-09-19T00:22:03;101739.91;;;18.99;50.18
52291;BME280;39663;45.432;28.050;2023-09-19T00:22:35;101740.03;;;18.93;50.11
52291;BME280;39663;45.432;28.050;2023-09-19T00:23:10;101738.20;;;18.98;50.12
52291;BME280;39663;45.432;28.050;2023-09-19T00:23:41;101740.34;;;18.97;50.15
52291;BME280;39663;45.432;28.050;2023-09-19T00:24:13;101738.69;;;18.81;50.25
52291;BME280;39663;45.432;28.050;2023-09-19T00:24:44;101737.87;;;18.91;50.24
52291;BME280;39663;45.432;28.050;2023-09-19T00:25:16;101738.82;;;18.58;50.21
52291;BME280;39663;45.432;28.050;2023-09-19T00:25:47;101737.84;;;18.78;50.21
52291;BME280;39663;45.432;28.050;2023-09-19T00:26:19;101735.36;;;18.78;50.32
52291;BME280;39663;45.432;28.050;2023-09-19T00:26:50;101735.52;;;18.59;50.29
52291;BME280;39663;45.432;28.050;2023-09-19T00:27:21;101735.72;;;18.90;50.39
52291;BME280;39663;45.432;28.050;2023-09-19T00:27:54;101736.02;;;18.73;50.44
52291;BME280;39663;45.432;28.050;2023-09-19T00:28:26;101734.62;;;18.96;50.50
52291;BME280;39663;45.432;28.050;2023-09-19T00:28:57;101734.26;;;18.70;50.58
52291;BME280;39663;45.432;28.050;2023-09-19T00:29:29;101734.92;;;18.84;50.60
52291;BME280;39663;45.432;28.050;2023-09-19T00:30:00;101735.00;;;18.72;50.68
52291;BME280;39663;45.432;28.050;2023-09-19T00:30:37;101735.67;;;18.85;50.75
52291;BME280;39663;45.432;28.050;2023-09-19T00:31:09;101735.53;;;18.91;50.79
52291;BME280;39663;45.432;28.050;2023-09-19T00:31:40;101735.25;;;18.84;50.79
52291;BME280;39663;45.432;28.050;2023-09-19T00:32:19;101734.69;;;18.89;50.73
52291;BME280;39663;45.432;28.050;2023-09-19T00:32:51;101734.70;;;18.96;50.66
52291;BME280;39663;45.432;28.050;2023-09-19T00:33:23;101734.06;;;18.50;50.52
52291;BME280;39663;45.432;28.050;2023-09-19T00:33:54;101735.34;;;19.00;50.59
52291;BME280;39663;45.432;28.050;2023-09-19T00:34:26;101732.12;;;18.99;50.60
52291;BME280;39663;45.432;28.050;2023-09-19T00:34:57;101732.99;;;18.69;50.72
52291;BME280;39663;45.432;28.050;2023-09-19T00:35:29;101732.85;;;18.67;50.69
52291;BME280;39663;45.432;28.050;2023-09-19T00:36:00;101733.85;;;18.88;50.70
52291;BME280;39663;45.432;28.050;2023-09-19T00:36:32;101731.73;;;18.88;50.72
52291;BME280;39663;45.432;28.050;2023-09-19T00:37:03;101731.38;;;18.70;50.69
52291;BME280;39663;45.432;28.050;2023-09-19T00:37:35;101730.63;;;18.68;50.70
52291;BME280;39663;45.432;28.050;2023-09-19T00:38:06;101730.52;;;18.76;50.69
52291;BME280;39663;45.432;28.050;2023-09-19T00:38:38;101730.81;;;18.77;50.65
52291;BME280;39663;45.432;28.050;2023-09-19T00:39:09;101729.96;;;18.52;50.69
52291;BME280;39663;45.432;28.050;2023-09-19T00:39:41;101730.17;;;18.54;50.65
52291;BME280;39663;45.432;28.050;2023-09-19T00:40:12;101728.91;;;18.78;50.65
52291;BME280;39663;45.432;28.050;2023-09-19T00:40:44;101729.77;;;18.59;50.62
52291;BME280;39663;45.432;28.050;2023-09-19T00:41:16;101727.65;;;18.75;50.69
52291;BME280;39663;45.432;28.050;2023-09-19T00:41:47;101727.03;;;18.77;50.62
52291;BME280;39663;45.432;28.050;2023-09-19T00:42:19;101730.08;;;18.71;50.74
52291;BME280;39663;45.432;28.050;2023-09-19T00:42:51;101729.36;;;18.81;50.87
52291;BME280;39663;45.432;28.050;2023-09-19T00:43:22;101728.10;;;18.68;50.86
52291;BME280;39663;45.432;28.050;2023-09-19T00:43:54;101727.23;;;18.81;50.97
52291;BME280;39663;45.432;28.050;2023-09-19T00:44:25;101727.74;;;18.60;51.01
52291;BME280;39663;45.432;28.050;2023-09-19T00:44:57;101726.54;;;18.84;50.99
52291;BME280;39663;45.432;28.050;2023-09-19T00:45:29;101725.73;;;18.84;50.88
52291;BME280;39663;45.432;28.050;2023-09-19T00:46:01;101723.52;;;18.79;51.03
52291;BME280;39663;45.432;28.050;2023-09-19T00:46:32;101720.28;;;18.64;50.87
52291;BME280;39663;45.432;28.050;2023-09-19T00:47:04;101720.71;;;18.87;50.93
52291;BME280;39663;45.432;28.050;2023-09-19T00:47:36;101718.87;;;18.76;50.92
52291;BME280;39663;45.432;28.050;2023-09-19T00:48:07;101717.22;;;18.72;50.97
52291;BME280;39663;45.432;28.050;2023-09-19T00:48:41;101715.98;;;18.84;50.89
52291;BME280;39663;45.432;28.050;2023-09-19T00:49:13;101714.64;;;18.64;50.85
52291;BME280;39663;45.432;28.050;2023-09-19T00:49:46;101714.26;;;18.76;50.89
52291;BME280;39663;45.432;28.050;2023-09-19T00:50:19;101712.74;;;18.87;50.89
52291;BME280;39663;45.432;28.050;2023-09-19T00:50:51;101712.87;;;18.76;50.93
52291;BME280;39663;45.432;28.050;2023-09-19T00:51:23;101713.29;;;18.65;50.91
52291;BME280;39663;45.432;28.050;2023-09-19T00:51:55;101712.46;;;18.87;50.92
52291;BME280;39663;45.432;28.050;2023-09-19T00:52:27;101713.47;;;18.67;50.85
52291;BME280;39663;45.432;28.050;2023-09-19T00:52:58;101713.37;;;18.84;50.82
52291;BME280;39663;45.432;28.050;2023-09-19T00:53:31;101714.30;;;18.63;50.90
52291;BME280;39663;45.432;28.050;2023-09-19T00:54:04;101713.78;;;18.84;50.81
52291;BME280;39663;45.432;28.050;2023-09-19T00:54:35;101715.91;;;18.69;50.67
52291;BME280;39663;45.432;28.050;2023-09-19T00:55:08;101713.35;;;18.45;50.68
52291;BME280;39663;45.432;28.050;2023-09-19T00:55:40;101714.21;;;18.91;50.76
52291;BME280;39663;45.432;28.050;2023-09-19T00:56:12;101711.69;;;18.81;50.98
52291;BME280;39663;45.432;28.050;2023-09-19T00:56:44;101715.16;;;18.68;51.08
52291;BME280;39663;45.432;28.050;2023-09-19T00:57:15;101713.44;;;18.34;51.04
52291;BME280;39663;45.432;28.050;2023-09-19T00:57:47;101713.67;;;18.67;51.06
52291;BME280;39663;45.432;28.050;2023-09-19T00:58:19;101712.65;;;18.65;51.14
52291;BME280;39663;45.432;28.050;2023-09-19T00:58:51;101713.25;;;18.66;51.27
52291;BME280;39663;45.432;28.050;2023-09-19T00:59:23;101712.26;;;18.54;51.02
52291;BME280;39663;45.432;28.050;2023-09-19T00:59:55;101712.31;;;18.51;50.98
52291;BME280;39663;45.432;28.050;2023-09-19T01:00:27;101712.42;;;18.72;51.05
52291;BME280;39663;45.432;28.050;2023-09-19T01:00:59;101711.40;;;18.53;50.86
52291;BME280;39663;45.432;28.050;2023-09-19T01:01:31;101713.65;;;18.59;51.00
52291;BME280;39663;45.432;28.050;2023-09-19T01:02:03;101712.30;;;18.70;51.06
52291;BME280;39663;45.432;28.050;2023-09-19T01:02:35;101712.63;;;18.63;51.21
52291;BME280;39663;45.432;28.050;2023-09-19T01:03:07;101712.50;;;18.59;51.10
52291;BME280;39663;45.432;28.050;2023-09-19T01:03:39;101713.34;;;18.53;51.27
52291;BME280;39663;45.432;28.050;2023-09-19T01:04:11;101712.24;;;18.52;51.29
52291;BME280;39663;45.432;28.050;2023-09-19T01:04:43;101713.28;;;18.46;51.22
52291;BME280;39663;45.432;28.050;2023-09-19T01:05:16;101712.39;;;18.54;51.24
52291;BME280;39663;45.432;28.050;2023-09-19T01:05:47;101711.87;;;18.18;51.20
52291;BME280;39663;45.432;28.050;2023-09-19T01:06:19;101710.40;;;18.35;51.18
52291;BME280;39663;45.432;28.050;2023-09-19T01:06:52;101710.67;;;18.52;51.29
52291;BME280;39663;45.432;28.050;2023-09-19T01:07:23;101709.41;;;18.59;51.31
52291;BME280;39663;45.432;28.050;2023-09-19T01:07:55;101709.99;;;18.55;51.13
52291;BME280;39663;45.432;28.050;2023-09-19T01:08:27;101708.68;;;18.68;50.98
52291;BME280;39663;45.432;28.050;2023-09-19T01:08:58;101709.78;;;18.68;51.09
52291;BME280;39663;45.432;28.050;2023-09-19T01:09:30;101710.59;;;18.31;51.31
52291;BME280;39663;45.432;28.050;2023-09-19T01:10:02;101712.73;;;18.22;51.57
52291;BME280;39663;45.432;28.050;2023-09-19T01:10:36;101711.71;;;18.23;51.51
52291;BME280;39663;45.432;28.050;2023-09-19T01:11:16;101713.69;;;18.62;51.05
52291;BME280;39663;45.432;28.050;2023-09-19T01:11:51;101713.54;;;18.68;50.84
52291;BME280;39663;45.432;28.050;2023-09-19T01:12:33;101712.63;;;18.63;50.83
52291;BME280;39663;45.432;28.050;2023-09-19T01:13:11;101712.01;;;18.34;50.76
52291;BME280;39663;45.432;28.050;2023-09-19T01:13:58;101710.15;;;18.68;50.78
52291;BME280;39663;45.432;28.050;2023-09-19T01:14:51;101712.24;;;18.51;51.05
52291;BME280;39663;45.432;28.050;2023-09-19T01:15:38;101711.24;;;18.45;51.14
52291;BME280;39663;45.432;28.050;2023-09-19T01:16:19;101709.70;;;18.74;51.04
52291;BME280;39663;45.432;28.050;2023-09-19T01:17:07;101710.52;;;18.72;51.26
52291;BME280;39663;45.432;28.050;2023-09-19T01:17:46;101709.79;;;18.03;51.99
52291;BME280;39663;45.432;28.050;2023-09-19T01:18:26;101708.01;;;18.48;52.02
52291;BME280;39663;45.432;28.050;2023-09-19T01:19:06;101707.00;;;18.48;52.05
52291;BME280;39663;45.432;28.050;2023-09-19T01:20:11;101706.93;;;18.10;52.43
52291;BME280;39663;45.432;28.050;2023-09-19T01:20:53;101702.40;;;18.48;52.14
52291;BME280;39663;45.432;28.050;2023-09-19T01:21:33;101702.50;;;18.41;52.13
52291;BME280;39663;45.432;28.050;2023-09-19T01:22:13;101701.16;;;18.33;52.24
52291;BME280;39663;45.432;28.050;2023-09-19T01:22:58;101697.85;;;18.57;52.27
52291;BME280;39663;45.432;28.050;2023-09-19T01:23:54;101698.46;;;18.56;52.35
52291;BME280;39663;45.432;28.050;2023-09-19T01:24:58;101696.74;;;18.62;52.43
52291;BME280;39663;45.432;28.050;2023-09-19T01:26:18;101697.29;;;18.62;52.46
52291;BME280;39663;45.432;28.050;2023-09-19T01:27:13;101698.34;;;18.40;52.56
52291;BME280;39663;45.432;28.050;2023-09-19T01:28:30;101698.67;;;18.59;52.66
52291;BME280;39663;45.432;28.050;2023-09-19T01:29:17;101699.93;;;18.46;53.00
52291;BME280;39663;45.432;28.050;2023-09-19T01:30:06;101696.30;;;18.30;53.16
52291;BME280;39663;45.432;28.050;2023-09-19T01:30:42;101698.83;;;18.36;53.39
52291;BME280;39663;45.432;28.050;2023-09-19T01:31:15;101696.28;;;18.44;53.27
52291;BME280;39663;45.432;28.050;2023-09-19T01:31:49;101698.25;;;18.39;53.42
52291;BME280;39663;45.432;28.050;2023-09-19T01:32:23;101697.42;;;17.93;53.47
52291;BME280;39663;45.432;28.050;2023-09-19T01:32:55;101698.21;;;18.52;53.14
52291;BME280;39663;45.432;28.050;2023-09-19T01:33:27;101698.16;;;18.51;53.06
52291;BME280;39663;45.432;28.050;2023-09-19T01:34:00;101696.02;;;18.50;53.06
52291;BME280;39663;45.432;28.050;2023-09-19T01:34:44;101696.25;;;18.04;53.17
52291;BME280;39663;45.432;28.050;2023-09-19T01:35:16;101695.28;;;18.39;53.19
52291;BME280;39663;45.432;28.050;2023-09-19T01:35:47;101695.38;;;18.42;53.24
52291;BME280;39663;45.432;28.050;2023-09-19T01:36:19;101693.51;;;18.38;53.32
52291;BME280;39663;45.432;28.050;2023-09-19T01:36:50;101691.84;;;18.24;53.60
52291;BME280;39663;45.432;28.050;2023-09-19T01:37:22;101692.64;;;18.05;53.51
52291;BME280;39663;45.432;28.050;2023-09-19T01:37:54;101692.13;;;18.13;53.32
52291;BME280;39663;45.432;28.050;2023-09-19T01:38:25;101688.60;;;18.40;53.32
52291;BME280;39663;45.432;28.050;2023-09-19T01:38:57;101690.15;;;18.37;53.28
52291;BME280;39663;45.432;28.050;2023-09-19T01:39:30;101691.33;;;18.50;53.27
52291;BME280;39663;45.432;28.050;2023-09-19T01:40:03;101689.84;;;18.49;53.14
52291;BME280;39663;45.432;28.050;2023-09-19T01:40:41;101688.33;;;18.36;53.08
52291;BME280;39663;45.432;28.050;2023-09-19T01:41:17;101689.41;;;18.33;53.05
52291;BME280;39663;45.432;28.050;2023-09-19T01:42:01;101690.19;;;18.52;53.15
52291;BME280;39663;45.432;28.050;2023-09-19T01:42:39;101688.68;;;18.54;52.96
52291;BME280;39663;45.432;28.050;2023-09-19T01:43:20;101686.98;;;18.34;52.95
52291;BME280;39663;45.432;28.050;2023-09-19T01:43:52;101687.40;;;18.50;52.97
52291;BME280;39663;45.432;28.050;2023-09-19T01:44:31;101686.89;;;18.48;53.01
52291;BME280;39663;45.432;28.050;2023-09-19T01:45:11;101687.07;;;18.45;53.04
52291;BME280;39663;45.432;28.050;2023-09-19T01:45:50;101690.47;;;18.25;53.13
52291;BME280;39663;45.432;28.050;2023-09-19T01:46:28;101690.20;;;18.42;53.26
52291;BME280;39663;45.432;28.050;2023-09-19T01:47:08;101689.42;;;18.07;53.38
52291;BME280;39663;45.432;28.050;2023-09-19T01:47:49;101688.74;;;18.04;53.53
52291;BME280;39663;45.432;28.050;2023-09-19T01:48:29;101688.61;;;18.05;53.90
52291;BME280;39663;45.432;28.050;2023-09-19T01:49:15;101691.08;;;18.05;53.79
52291;BME280;39663;45.432;28.050;2023-09-19T01:49:56;101691.16;;;18.10;53.92
52291;BME280;39663;45.432;28.050;2023-09-19T01:50:33;101688.93;;;18.00;53.96
52291;BME280;39663;45.432;28.050;2023-09-19T01:51:09;101691.02;;;18.11;53.87
52291;BME280;39663;45.432;28.050;2023-09-19T01:51:46;101692.43;;;18.15;53.70
52291;BME280;39663;45.432;28.050;2023-09-19T01:52:22;101691.54;;;17.96;54.24
52291;BME280;39663;45.432;28.050;2023-09-19T01:53:04;101692.18;;;17.92;54.17
52291;BME280;39663;45.432;28.050;2023-09-19T01:53:43;101692.65;;;17.85;54.35
52291;BME280;39663;45.432;28.050;2023-09-19T01:54:20;101690.32;;;18.01;54.12
52291;BME280;39663;45.432;28.050;2023-09-19T01:55:02;101691.90;;;18.12;53.88
52291;BME280;39663;45.432;28.050;2023-09-19T01:55:40;101691.91;;;18.15;53.82
52291;BME280;39663;45.432;28.050;2023-09-19T01:56:25;101691.15;;;18.16;53.72
52291;BME280;39663;45.432;28.050;2023-09-19T01:57:06;101692.10;;;18.08;53.84
52291;BME280;39663;45.432;28.050;2023-09-19T01:57:47;101690.10;;;17.98;53.75
52291;BME280;39663;45.432;28.050;2023-09-19T01:58:25;101687.52;;;18.21;53.58
52291;BME280;39663;45.432;28.050;2023-09-19T01:59:04;101687.91;;;18.24;53.59
52291;BME280;39663;45.432;28.050;2023-09-19T01:59:43;101686.54;;;18.28;53.42
52291;BME280;39663;45.432;28.050;2023-09-19T02:00:17;101684.58;;;18.24;53.49
52291;BME280;39663;45.432;28.050;2023-09-19T02:00:51;101682.12;;;18.42;53.50
52291;BME280;39663;45.432;28.050;2023-09-19T02:01:24;101680.68;;;18.22;53.50
52291;BME280;39663;45.432;28.050;2023-09-19T02:01:57;101680.30;;;18.25;53.51
52291;BME280;39663;45.432;28.050;2023-09-19T02:02:29;101679.20;;;18.05;53.93
52291;BME280;39663;45.432;28.050;2023-09-19T02:03:02;101681.11;;;18.00;53.97
52291;BME280;39663;45.432;28.050;2023-09-19T02:03:35;101679.20;;;17.99;54.01
52291;BME280;39663;45.432;28.050;2023-09-19T02:04:07;101679.52;;;18.00;54.03
52291;BME280;39663;45.432;28.050;2023-09-19T02:04:39;101678.59;;;18.04;53.90
52291;BME280;39663;45.432;28.050;2023-09-19T02:05:11;101677.40;;;18.08;53.77
52291;BME280;39663;45.432;28.050;2023-09-19T02:05:49;101678.87;;;18.10;53.76
52291;BME280;39663;45.432;28.050;2023-09-19T02:06:21;101677.64;;;18.11;53.77
52291;BME280;39663;45.432;28.050;2023-09-19T02:06:53;101679.32;;;18.07;53.82
52291;BME280;39663;45.432;28.050;2023-09-19T02:07:24;101677.38;;;18.08;53.79
52291;BME280;39663;45.432;28.050;2023-09-19T02:07:56;101679.16;;;18.04;53.86
52291;BME280;39663;45.432;28.050;2023-09-19T02:08:28;101678.31;;;17.82;53.97
52291;BME280;39663;45.432;28.050;2023-09-19T02:09:00;101679.55;;;18.03;53.92
52291;BME280;39663;45.432;28.050;2023-09-19T02:09:31;101678.25;;;18.03;53.93
52291;BME280;39663;45.432;28.050;2023-09-19T02:10:03;101676.17;;;17.79;54.17
52291;BME280;39663;45.432;28.050;2023-09-19T02:10:35;101673.75;;;17.81;54.10
52291;BME280;39663;45.432;28.050;2023-09-19T02:11:06;101672.38;;;17.95;54.21
52291;BME280;39663;45.432;28.050;2023-09-19T02:11:38;101673.58;;;17.97;54.23
52291;BME280;39663;45.432;28.050;2023-09-19T02:12:10;101672.61;;;17.99;54.20
52291;BME280;39663;45.432;28.050;2023-09-19T02:12:42;101668.91;;;18.07;54.06
52291;BME280;39663;45.432;28.050;2023-09-19T02:13:13;101668.30;;;18.10;53.97
52291;BME280;39663;45.432;28.050;2023-09-19T02:13:45;101666.54;;;18.04;54.27
52291;BME280;39663;45.432;28.050;2023-09-19T02:14:16;101665.60;;;18.07;54.26
52291;BME280;39663;45.432;28.050;2023-09-19T02:14:48;101665.16;;;18.00;54.23
52291;BME280;39663;45.432;28.050;2023-09-19T02:15:19;101661.53;;;18.23;54.19
52291;BME280;39663;45.432;28.050;2023-09-19T02:15:51;101659.78;;;18.06;54.10
52291;BME280;39663;45.432;28.050;2023-09-19T02:16:22;101660.31;;;18.06;54.19
52291;BME280;39663;45.432;28.050;2023-09-19T02:16:54;101659.70;;;17.95;54.26
52291;BME280;39663;45.432;28.050;2023-09-19T02:17:26;101659.04;;;18.02;54.12
52291;BME280;39663;45.432;28.050;2023-09-19T02:17:57;101659.74;;;18.04;54.05
52291;BME280;39663;45.432;28.050;2023-09-19T02:18:28;101659.82;;;18.08;54.02
52291;BME280;39663;45.432;28.050;2023-09-19T02:19:00;101660.46;;;18.07;53.90
52291;BME280;39663;45.432;28.050;2023-09-19T02:19:31;101658.90;;;18.05;53.95
52291;BME280;39663;45.432;28.050;2023-09-19T02:20:03;101659.08;;;18.01;54.04
52291;BME280;39663;45.432;28.050;2023-09-19T02:20:35;101661.60;;;18.05;53.88
52291;BME280;39663;45.432;28.050;2023-09-19T02:21:06;101661.24;;;18.09;53.88
52291;BME280;39663;45.432;28.050;2023-09-19T02:21:38;101661.53;;;18.02;53.97
52291;BME280;39663;45.432;28.050;2023-09-19T02:22:10;101662.26;;;18.15;54.03
52291;BME280;39663;45.432;28.050;2023-09-19T02:22:42;101664.28;;;18.02;54.00
52291;BME280;39663;45.432;28.050;2023-09-19T02:23:14;101663.89;;;18.02;53.95
52291;BME280;39663;45.432;28.050;2023-09-19T02:23:46;101664.53;;;17.97;53.99
52291;BME280;39663;45.432;28.050;2023-09-19T02:24:17;101667.15;;;18.01;54.04
52291;BME280;39663;45.432;28.050;2023-09-19T02:24:48;101667.58;;;17.98;53.99
52291;BME280;39663;45.432;28.050;2023-09-19T02:25:20;101668.80;;;18.18;54.04
52291;BME280;39663;45.432;28.050;2023-09-19T02:25:53;101668.12;;;18.13;54.16
52291;BME280;39663;45.432;28.050;2023-09-19T02:26:25;101669.56;;;17.93;54.14
52291;BME280;39663;45.432;28.050;2023-09-19T02:26:56;101670.23;;;17.99;54.07
52291;BME280;39663;45.432;28.050;2023-09-19T02:27:27;101669.74;;;18.20;53.97
52291;BME280;39663;45.432;28.050;2023-09-19T02:27:59;101668.13;;;17.98;53.87
52291;BME280;39663;45.432;28.050;2023-09-19T02:28:30;101668.07;;;18.21;53.85
52291;BME280;39663;45.432;28.050;2023-09-19T02:29:02;101667.37;;;18.02;53.83
52291;BME280;39663;45.432;28.050;2023-09-19T02:29:34;101668.94;;;17.99;53.89
52291;BME280;39663;45.432;28.050;2023-09-19T02:30:06;101670.94;;;18.01;53.95
52291;BME280;39663;45.432;28.050;2023-09-19T02:30:38;101671.98;;;17.94;54.05
52291;BME280;39663;45.432;28.050;2023-09-19T02:31:09;101670.35;;;17.81;54.45
52291;BME280;39663;45.432;28.050;2023-09-19T02:31:41;101670.41;;;17.84;54.33
52291;BME280;39663;45.432;28.050;2023-09-19T02:32:12;101672.82;;;17.85;54.32
52291;BME280;39663;45.432;28.050;2023-09-19T02:32:44;101672.48;;;18.00;54.63
52291;BME280;39663;45.432;28.050;2023-09-19T02:33:15;101672.35;;;17.72;54.98
52291;BME280;39663;45.432;28.050;2023-09-19T02:33:47;101672.88;;;17.78;54.99
52291;BME280;39663;45.432;28.050;2023-09-19T02:34:18;101674.59;;;17.94;54.70
52291;BME280;39663;45.432;28.050;2023-09-19T02:34:49;101675.70;;;18.06;54.40
52291;BME280;39663;45.432;28.050;2023-09-19T02:35:21;101677.19;;;18.02;54.53
52291;BME280;39663;45.432;28.050;2023-09-19T02:35:55;101674.58;;;18.25;54.57
52291;BME280;39663;45.432;28.050;2023-09-19T02:36:26;101673.30;;;18.17;54.12
52291;BME280;39663;45.432;28.050;2023-09-19T02:36:58;101673.90;;;18.27;53.92
52291;BME280;39663;45.432;28.050;2023-09-19T02:37:30;101672.63;;;18.24;53.81
52291;BME280;39663;45.432;28.050;2023-09-19T02:38:01;101672.97;;;18.27;53.79
52291;BME280;39663;45.432;28.050;2023-09-19T02:38:33;101672.46;;;18.36;53.75
52291;BME280;39663;45.432;28.050;2023-09-19T02:39:04;101669.20;;;18.28;53.82
52291;BME280;39663;45.432;28.050;2023-09-19T02:39:36;101669.67;;;18.32;53.73
52291;BME280;39663;45.432;28.050;2023-09-19T02:40:09;101666.04;;;18.32;53.52
52291;BME280;39663;45.432;28.050;2023-09-19T02:40:40;101667.32;;;18.30;53.49
52291;BME280;39663;45.432;28.050;2023-09-19T02:41:12;101665.05;;;18.27;53.44
52291;BME280;39663;45.432;28.050;2023-09-19T02:41:43;101663.14;;;18.24;53.29
52291;BME280;39663;45.432;28.050;2023-09-19T02:42:15;101661.68;;;18.26;53.18
52291;BME280;39663;45.432;28.050;2023-09-19T02:42:46;101661.04;;;18.18;53.10
52291;BME280;39663;45.432;28.050;2023-09-19T02:43:19;101660.37;;;18.18;52.93
52291;BME280;39663;45.432;28.050;2023-09-19T02:43:50;101658.10;;;18.18;52.75
52291;BME280;39663;45.432;28.050;2023-09-19T02:44:22;101657.79;;;18.13;52.70
52291;BME280;39663;45.432;28.050;2023-09-19T02:44:54;101656.67;;;18.19;52.52
52291;BME280;39663;45.432;28.050;2023-09-19T02:45:25;101656.89;;;18.07;52.65
52291;BME280;39663;45.432;28.050;2023-09-19T02:45:57;101656.44;;;18.24;52.66
52291;BME280;39663;45.432;28.050;2023-09-19T02:46:28;101656.93;;;18.21;52.70
52291;BME280;39663;45.432;28.050;2023-09-19T02:47:00;101654.54;;;18.01;52.54
52291;BME280;39663;45.432;28.050;2023-09-19T02:47:31;101655.92;;;17.99;52.39
52291;BME280;39663;45.432;28.050;2023-09-19T02:48:03;101655.77;;;17.79;52.39
52291;BME280;39663;45.432;28.050;2023-09-19T02:48:35;101656.77;;;17.95;52.38
52291;BME280;39663;45.432;28.050;2023-09-19T02:49:07;101659.53;;;17.88;52.57
52291;BME280;39663;45.432;28.050;2023-09-19T02:49:38;101659.22;;;18.34;52.30
52291;BME280;39663;45.432;28.050;2023-09-19T02:50:10;101659.28;;;18.01;52.62
52291;BME280;39663;45.432;28.050;2023-09-19T02:50:42;101658.70;;;17.86;52.61
52291;BME280;39663;45.432;28.050;2023-09-19T02:51:13;101658.85;;;17.86;52.45
52291;BME280;39663;45.432;28.050;2023-09-19T02:51:45;101656.54;;;17.82;52.51
52291;BME280;39663;45.432;28.050;2023-09-19T02:52:16;101658.16;;;17.80;52.48
52291;BME280;39663;45.432;28.050;2023-09-19T02:52:48;101659.23;;;17.92;52.66
52291;BME280;39663;45.432;28.050;2023-09-19T02:53:19;101658.95;;;17.63;53.00
52291;BME280;39663;45.432;28.050;2023-09-19T02:53:50;101657.17;;;17.60;53.12
52291;BME280;39663;45.432;28.050;2023-09-19T02:54:22;101657.54;;;17.60;53.16
52291;BME280;39663;45.432;28.050;2023-09-19T02:54:54;101658.32;;;17.56;53.03
52291;BME280;39663;45.432;28.050;2023-09-19T02:55:25;101656.76;;;17.58;53.20